sensor_id;sensor_type;location;lat;lon;timestamp;P1;durP1;ratioP1;P2;durP2;ratioP2
5650;SDS011;40241;52.684;9.758;2023-07-13T00:00:41;1.97;;;1.80;;
5650;SDS011;40241;52.684;9.758;2023-07-13T00:03:07;2.07;;;1.97;;
5650;SDS011;40241;52.684;9.758;2023-07-13T00:05:33;3.67;;;2.30;;
5650;SDS011;40241;52.684;9.758;2023-07-13T00:07:58;1.73;;;1.63;;
5650;SDS011;40241;52.684;9.758;2023-07-13T00:10:23;5.27;;;2.40;;
5650;SDS011;40241;52.684;9.758;2023-07-13T00:12:49;3.70;;;2.37;;
5650;SDS011;40241;52.684;9.758;2023-07-13T00:15:19;3.67;;;2.07;;
5650;SDS011;40241;52.684;9.758;2023-07-13T00:17:49;2.60;;;2.20;;
5650;SDS011;40241;52.684;9.758;2023-07-13T00:20:16;6.70;;;2.73;;
5650;SDS011;40241;52.684;9.758;2023-07-13T00:22:41;2.40;;;2.20;;
5650;SDS011;40241;52.684;9.758;2023-07-13T00:25:08;2.70;;;1.90;;
5650;SDS011;40241;52.684;9.758;2023-07-13T00:27:35;2.30;;;2.20;;
5650;SDS011;40241;52.684;9.758;2023-07-13T00:30:01;2.30;;;1.93;;
5650;SDS011;40241;52.684;9.758;2023-07-13T00:32:28;2.67;;;2.47;;
5650;SDS011;40241;52.684;9.758;2023-07-13T00:34:54;2.60;;;2.40;;
5650;SDS011;40241;52.684;9.758;2023-07-13T00:37:20;3.77;;;2.20;;
5650;SDS011;40241;52.684;9.758;2023-07-13T00:39:45;2.40;;;2.20;;
5650;SDS011;40241;52.684;9.758;2023-07-13T00:42:11;2.10;;;1.80;;
5650;SDS011;40241;52.684;9.758;2023-07-13T00:44:36;2.20;;;2.00;;
5650;SDS011;40241;52.684;9.758;2023-07-13T00:47:01;3.10;;;2.10;;
5650;SDS011;40241;52.684;9.758;2023-07-13T00:49:27;3.83;;;2.10;;
5650;SDS011;40241;52.684;9.758;2023-07-13T00:51:58;2.30;;;2.20;;
5650;SDS011;40241;52.684;9.758;2023-07-13T00:54:34;2.60;;;2.40;;
5650;SDS011;40241;52.684;9.758;2023-07-13T00:57:11;2.30;;;2.20;;
5650;SDS011;40241;52.684;9.758;2023-07-13T00:59:40;2.17;;;2.07;;
5650;SDS011;40241;52.684;9.758;2023-07-13T01:02:10;2.17;;;2.07;;
5650;SDS011;40241;52.684;9.758;2023-07-13T01:04:35;2.10;;;2.00;;
5650;SDS011;40241;52.684;9.758;2023-07-13T01:07:01;2.37;;;2.20;;
5650;SDS011;40241;52.684;9.758;2023-07-13T01:09:26;2.60;;;2.40;;
5650;SDS011;40241;52.684;9.758;2023-07-13T01:11:52;2.70;;;2.10;;
5650;SDS011;40241;52.684;9.758;2023-07-13T01:14:18;3.40;;;2.40;;
5650;SDS011;40241;52.684;9.758;2023-07-13T01:16:44;1.77;;;1.60;;
5650;SDS011;40241;52.684;9.758;2023-07-13T01:22:05;2.90;;;2.03;;
5650;SDS011;40241;52.684;9.758;2023-07-13T01:24:34;2.20;;;2.10;;
5650;SDS011;40241;52.684;9.758;2023-07-13T01:27:01;2.80;;;2.30;;
5650;SDS011;40241;52.684;9.758;2023-07-13T01:29:27;3.20;;;2.70;;
5650;SDS011;40241;52.684;9.758;2023-07-13T01:31:52;2.70;;;1.83;;
5650;SDS011;40241;52.684;9.758;2023-07-13T01:34:18;3.57;;;2.10;;
5650;SDS011;40241;52.684;9.758;2023-07-13T01:36:43;2.53;;;2.33;;
5650;SDS011;40241;52.684;9.758;2023-07-13T01:39:08;2.50;;;2.30;;
5650;SDS011;40241;52.684;9.758;2023-07-13T01:41:34;2.70;;;2.50;;
5650;SDS011;40241;52.684;9.758;2023-07-13T01:43:59;1.83;;;1.73;;
5650;SDS011;40241;52.684;9.758;2023-07-13T01:46:24;2.73;;;1.93;;
5650;SDS011;40241;52.684;9.758;2023-07-13T01:48:50;2.30;;;2.00;;
5650;SDS011;40241;52.684;9.758;2023-07-13T01:51:17;1.83;;;1.73;;
5650;SDS011;40241;52.684;9.758;2023-07-13T01:53:43;1.90;;;1.80;;
5650;SDS011;40241;52.684;9.758;2023-07-13T01:56:08;3.53;;;2.13;;
5650;SDS011;40241;52.684;9.758;2023-07-13T01:58:34;3.73;;;1.93;;
5650;SDS011;40241;52.684;9.758;2023-07-13T02:00:59;2.40;;;2.20;;
5650;SDS011;40241;52.684;9.758;2023-07-13T02:03:24;2.03;;;1.93;;
5650;SDS011;40241;52.684;9.758;2023-07-13T02:05:49;2.40;;;2.30;;
5650;SDS011;40241;52.684;9.758;2023-07-13T02:08:15;2.00;;;1.90;;
5650;SDS011;40241;52.684;9.758;2023-07-13T02:10:40;2.20;;;2.00;;
5650;SDS011;40241;52.684;9.758;2023-07-13T02:13:06;2.77;;;2.57;;
5650;SDS011;40241;52.684;9.758;2023-07-13T02:15:31;2.33;;;2.00;;
5650;SDS011;40241;52.684;9.758;2023-07-13T02:17:57;2.50;;;2.40;;
5650;SDS011;40241;52.684;9.758;2023-07-13T02:20:23;1.97;;;1.87;;
5650;SDS011;40241;52.684;9.758;2023-07-13T02:22:49;2.40;;;1.80;;
5650;SDS011;40241;52.684;9.758;2023-07-13T02:25:14;2.13;;;2.03;;
5650;SDS011;40241;52.684;9.758;2023-07-13T02:27:40;2.00;;;1.90;;
5650;SDS011;40241;52.684;9.758;2023-07-13T02:30:06;2.20;;;2.10;;
5650;SDS011;40241;52.684;9.758;2023-07-13T02:32:32;1.90;;;1.80;;
5650;SDS011;40241;52.684;9.758;2023-07-13T02:34:58;2.60;;;2.40;;
5650;SDS011;40241;52.684;9.758;2023-07-13T02:37:24;2.20;;;2.10;;
5650;SDS011;40241;52.684;9.758;2023-07-13T02:39:49;2.77;;;1.90;;
5650;SDS011;40241;52.684;9.758;2023-07-13T02:42:15;2.33;;;2.10;;
5650;SDS011;40241;52.684;9.758;2023-07-13T02:44:40;3.27;;;2.10;;
5650;SDS011;40241;52.684;9.758;2023-07-13T02:47:06;2.63;;;2.27;;
5650;SDS011;40241;52.684;9.758;2023-07-13T02:49:31;1.80;;;1.70;;
5650;SDS011;40241;52.684;9.758;2023-07-13T02:51:57;2.03;;;1.93;;
5650;SDS011;40241;52.684;9.758;2023-07-13T02:54:22;2.90;;;2.70;;
5650;SDS011;40241;52.684;9.758;2023-07-13T02:56:47;2.30;;;2.13;;
5650;SDS011;40241;52.684;9.758;2023-07-13T02:59:13;3.13;;;2.00;;
5650;SDS011;40241;52.684;9.758;2023-07-13T03:01:38;2.90;;;2.63;;
5650;SDS011;40241;52.684;9.758;2023-07-13T03:04:04;2.17;;;2.07;;
5650;SDS011;40241;52.684;9.758;2023-07-13T03:06:30;2.00;;;1.90;;
5650;SDS011;40241;52.684;9.758;2023-07-13T03:08:56;2.50;;;2.20;;
5650;SDS011;40241;52.684;9.758;2023-07-13T03:11:22;2.40;;;2.20;;
5650;SDS011;40241;52.684;9.758;2023-07-13T03:13:47;1.93;;;1.83;;
5650;SDS011;40241;52.684;9.758;2023-07-13T03:16:14;2.27;;;2.10;;
5650;SDS011;40241;52.684;9.758;2023-07-13T03:18:43;3.23;;;2.13;;
5650;SDS011;40241;52.684;9.758;2023-07-13T03:21:09;2.70;;;2.30;;
5650;SDS011;40241;52.684;9.758;2023-07-13T03:23:34;1.90;;;1.80;;
5650;SDS011;40241;52.684;9.758;2023-07-13T03:26:01;2.60;;;1.90;;
5650;SDS011;40241;52.684;9.758;2023-07-13T03:28:28;2.00;;;1.90;;
5650;SDS011;40241;52.684;9.758;2023-07-13T03:31:03;2.00;;;1.90;;
5650;SDS011;40241;52.684;9.758;2023-07-13T03:33:34;2.30;;;2.10;;
5650;SDS011;40241;52.684;9.758;2023-07-13T03:36:01;2.83;;;2.37;;
5650;SDS011;40241;52.684;9.758;2023-07-13T03:38:28;2.53;;;2.33;;
5650;SDS011;40241;52.684;9.758;2023-07-13T03:40:53;2.40;;;2.30;;
5650;SDS011;40241;52.684;9.758;2023-07-13T03:43:18;2.27;;;2.10;;
5650;SDS011;40241;52.684;9.758;2023-07-13T03:45:45;2.53;;;2.30;;
5650;SDS011;40241;52.684;9.758;2023-07-13T03:48:10;2.60;;;2.03;;
5650;SDS011;40241;52.684;9.758;2023-07-13T03:50:36;2.67;;;2.43;;
5650;SDS011;40241;52.684;9.758;2023-07-13T03:53:01;2.37;;;2.17;;
5650;SDS011;40241;52.684;9.758;2023-07-13T03:55:26;3.47;;;2.03;;
5650;SDS011;40241;52.684;9.758;2023-07-13T03:57:59;3.07;;;2.27;;
5650;SDS011;40241;52.684;9.758;2023-07-13T04:00:26;1.63;;;1.53;;
5650;SDS011;40241;52.684;9.758;2023-07-13T04:02:51;1.90;;;1.80;;
5650;SDS011;40241;52.684;9.758;2023-07-13T04:05:17;2.30;;;2.10;;
5650;SDS011;40241;52.684;9.758;2023-07-13T04:07:42;3.47;;;2.00;;
5650;SDS011;40241;52.684;9.758;2023-07-13T04:10:08;3.40;;;1.90;;
5650;SDS011;40241;52.684;9.758;2023-07-13T04:12:33;2.20;;;1.73;;
5650;SDS011;40241;52.684;9.758;2023-07-13T04:14:59;2.63;;;1.83;;
5650;SDS011;40241;52.684;9.758;2023-07-13T04:17:24;2.50;;;2.30;;
5650;SDS011;40241;52.684;9.758;2023-07-13T04:19:49;4.70;;;2.10;;
5650;SDS011;40241;52.684;9.758;2023-07-13T04:22:15;2.37;;;2.20;;
5650;SDS011;40241;52.684;9.758;2023-07-13T04:24:40;2.27;;;2.00;;
5650;SDS011;40241;52.684;9.758;2023-07-13T04:27:06;2.43;;;2.00;;
5650;SDS011;40241;52.684;9.758;2023-07-13T04:29:32;2.13;;;1.90;;
5650;SDS011;40241;52.684;9.758;2023-07-13T04:31:57;2.27;;;1.80;;
5650;SDS011;40241;52.684;9.758;2023-07-13T04:34:22;2.10;;;1.50;;
5650;SDS011;40241;52.684;9.758;2023-07-13T04:36:49;2.10;;;1.90;;
5650;SDS011;40241;52.684;9.758;2023-07-13T04:39:14;1.50;;;1.40;;
5650;SDS011;40241;52.684;9.758;2023-07-13T04:41:40;2.47;;;2.03;;
5650;SDS011;40241;52.684;9.758;2023-07-13T04:44:05;2.93;;;1.53;;
5650;SDS011;40241;52.684;9.758;2023-07-13T04:46:30;2.03;;;1.73;;
5650;SDS011;40241;52.684;9.758;2023-07-13T04:48:56;4.30;;;1.90;;
5650;SDS011;40241;52.684;9.758;2023-07-13T04:51:22;1.60;;;1.50;;
5650;SDS011;40241;52.684;9.758;2023-07-13T04:53:48;1.57;;;1.37;;
5650;SDS011;40241;52.684;9.758;2023-07-13T04:56:13;2.73;;;1.57;;
5650;SDS011;40241;52.684;9.758;2023-07-13T04:58:38;3.77;;;1.57;;
5650;SDS011;40241;52.684;9.758;2023-07-13T05:01:05;1.43;;;1.30;;
5650;SDS011;40241;52.684;9.758;2023-07-13T05:03:31;1.80;;;1.70;;
5650;SDS011;40241;52.684;9.758;2023-07-13T05:05:58;2.60;;;1.70;;
5650;SDS011;40241;52.684;9.758;2023-07-13T05:08:26;1.40;;;1.30;;
5650;SDS011;40241;52.684;9.758;2023-07-13T05:10:51;2.13;;;1.53;;
5650;SDS011;40241;52.684;9.758;2023-07-13T05:13:17;1.50;;;1.40;;
5650;SDS011;40241;52.684;9.758;2023-07-13T05:15:43;3.30;;;1.50;;
5650;SDS011;40241;52.684;9.758;2023-07-13T05:18:08;1.93;;;1.50;;
5650;SDS011;40241;52.684;9.758;2023-07-13T05:20:33;2.83;;;1.50;;
5650;SDS011;40241;52.684;9.758;2023-07-13T05:22:59;2.83;;;1.50;;
5650;SDS011;40241;52.684;9.758;2023-07-13T05:25:24;3.07;;;1.20;;
5650;SDS011;40241;52.684;9.758;2023-07-13T05:27:49;2.93;;;1.67;;
5650;SDS011;40241;52.684;9.758;2023-07-13T05:30:15;1.80;;;1.47;;
5650;SDS011;40241;52.684;9.758;2023-07-13T05:32:40;1.53;;;1.30;;
5650;SDS011;40241;52.684;9.758;2023-07-13T05:35:06;3.07;;;1.70;;
5650;SDS011;40241;52.684;9.758;2023-07-13T05:37:32;1.53;;;1.10;;
5650;SDS011;40241;52.684;9.758;2023-07-13T05:39:57;10.43;;;1.60;;
5650;SDS011;40241;52.684;9.758;2023-07-13T05:42:22;3.60;;;1.53;;
5650;SDS011;40241;52.684;9.758;2023-07-13T05:44:47;3.77;;;1.80;;
5650;SDS011;40241;52.684;9.758;2023-07-13T05:47:13;6.93;;;1.53;;
5650;SDS011;40241;52.684;9.758;2023-07-13T05:49:40;1.83;;;1.33;;
5650;SDS011;40241;52.684;9.758;2023-07-13T05:52:05;2.83;;;1.73;;
5650;SDS011;40241;52.684;9.758;2023-07-13T05:54:31;3.37;;;1.57;;
5650;SDS011;40241;52.684;9.758;2023-07-13T05:56:56;2.23;;;1.37;;
5650;SDS011;40241;52.684;9.758;2023-07-13T05:59:21;4.17;;;1.73;;
5650;SDS011;40241;52.684;9.758;2023-07-13T06:01:47;3.37;;;1.90;;
5650;SDS011;40241;52.684;9.758;2023-07-13T06:04:12;10.97;;;1.70;;
5650;SDS011;40241;52.684;9.758;2023-07-13T06:06:37;4.27;;;1.77;;
5650;SDS011;40241;52.684;9.758;2023-07-13T06:09:03;2.40;;;1.70;;
5650;SDS011;40241;52.684;9.758;2023-07-13T06:11:28;3.67;;;1.73;;
5650;SDS011;40241;52.684;9.758;2023-07-13T06:13:55;2.13;;;1.50;;
5650;SDS011;40241;52.684;9.758;2023-07-13T06:16:21;4.37;;;1.30;;
5650;SDS011;40241;52.684;9.758;2023-07-13T06:18:46;2.63;;;1.50;;
5650;SDS011;40241;52.684;9.758;2023-07-13T06:21:15;3.03;;;1.33;;
5650;SDS011;40241;52.684;9.758;2023-07-13T06:23:42;1.30;;;1.17;;
5650;SDS011;40241;52.684;9.758;2023-07-13T06:26:08;2.27;;;1.17;;
5650;SDS011;40241;52.684;9.758;2023-07-13T06:28:35;2.60;;;1.33;;
5650;SDS011;40241;52.684;9.758;2023-07-13T06:31:01;4.27;;;1.80;;
5650;SDS011;40241;52.684;9.758;2023-07-13T06:33:29;1.43;;;1.30;;
5650;SDS011;40241;52.684;9.758;2023-07-13T06:35:55;3.37;;;1.40;;
5650;SDS011;40241;52.684;9.758;2023-07-13T06:38:20;4.30;;;1.40;;
5650;SDS011;40241;52.684;9.758;2023-07-13T06:40:46;2.40;;;1.47;;
5650;SDS011;40241;52.684;9.758;2023-07-13T06:43:11;2.23;;;1.07;;
5650;SDS011;40241;52.684;9.758;2023-07-13T06:45:40;1.97;;;1.20;;
5650;SDS011;40241;52.684;9.758;2023-07-13T06:48:07;3.50;;;1.20;;
5650;SDS011;40241;52.684;9.758;2023-07-13T06:50:33;2.57;;;1.10;;
5650;SDS011;40241;52.684;9.758;2023-07-13T06:52:58;2.53;;;1.40;;
5650;SDS011;40241;52.684;9.758;2023-07-13T06:55:24;3.27;;;1.20;;
5650;SDS011;40241;52.684;9.758;2023-07-13T06:57:50;2.00;;;1.27;;
5650;SDS011;40241;52.684;9.758;2023-07-13T07:00:15;3.07;;;1.33;;
5650;SDS011;40241;52.684;9.758;2023-07-13T07:02:41;1.60;;;1.30;;
5650;SDS011;40241;52.684;9.758;2023-07-13T07:05:06;3.00;;;1.13;;
5650;SDS011;40241;52.684;9.758;2023-07-13T07:07:31;1.80;;;1.30;;
5650;SDS011;40241;52.684;9.758;2023-07-13T07:09:57;2.00;;;1.00;;
5650;SDS011;40241;52.684;9.758;2023-07-13T07:12:22;1.67;;;0.80;;
5650;SDS011;40241;52.684;9.758;2023-07-13T07:14:47;2.90;;;1.00;;
5650;SDS011;40241;52.684;9.758;2023-07-13T07:17:13;2.37;;;1.00;;
5650;SDS011;40241;52.684;9.758;2023-07-13T07:19:38;2.73;;;1.10;;
5650;SDS011;40241;52.684;9.758;2023-07-13T07:22:03;2.40;;;1.27;;
5650;SDS011;40241;52.684;9.758;2023-07-13T07:24:29;2.33;;;1.30;;
5650;SDS011;40241;52.684;9.758;2023-07-13T07:26:54;1.63;;;1.10;;
5650;SDS011;40241;52.684;9.758;2023-07-13T07:29:19;3.33;;;1.43;;
5650;SDS011;40241;52.684;9.758;2023-07-13T07:31:45;1.67;;;1.10;;
5650;SDS011;40241;52.684;9.758;2023-07-13T07:34:10;2.50;;;1.17;;
5650;SDS011;40241;52.684;9.758;2023-07-13T07:36:36;2.60;;;1.00;;
5650;SDS011;40241;52.684;9.758;2023-07-13T07:39:01;1.43;;;1.07;;
5650;SDS011;40241;52.684;9.758;2023-07-13T07:41:26;2.47;;;1.20;;
5650;SDS011;40241;52.684;9.758;2023-07-13T07:43:52;2.33;;;1.40;;
5650;SDS011;40241;52.684;9.758;2023-07-13T07:46:17;2.80;;;1.03;;
5650;SDS011;40241;52.684;9.758;2023-07-13T07:48:42;2.20;;;1.20;;
5650;SDS011;40241;52.684;9.758;2023-07-13T07:51:08;2.50;;;1.50;;
5650;SDS011;40241;52.684;9.758;2023-07-13T07:53:33;2.30;;;1.00;;
5650;SDS011;40241;52.684;9.758;2023-07-13T07:55:58;2.70;;;1.37;;
5650;SDS011;40241;52.684;9.758;2023-07-13T07:58:24;3.03;;;1.27;;
5650;SDS011;40241;52.684;9.758;2023-07-13T08:00:49;1.73;;;1.03;;
5650;SDS011;40241;52.684;9.758;2023-07-13T08:03:14;2.90;;;1.20;;
5650;SDS011;40241;52.684;9.758;2023-07-13T08:05:39;4.00;;;1.50;;
5650;SDS011;40241;52.684;9.758;2023-07-13T08:08:05;3.27;;;1.20;;
5650;SDS011;40241;52.684;9.758;2023-07-13T08:10:30;3.40;;;1.40;;
5650;SDS011;40241;52.684;9.758;2023-07-13T08:12:55;2.20;;;1.00;;
5650;SDS011;40241;52.684;9.758;2023-07-13T08:15:21;3.10;;;1.33;;
5650;SDS011;40241;52.684;9.758;2023-07-13T08:17:47;1.40;;;1.10;;
5650;SDS011;40241;52.684;9.758;2023-07-13T08:20:14;5.03;;;1.50;;
5650;SDS011;40241;52.684;9.758;2023-07-13T08:22:39;2.77;;;1.30;;
5650;SDS011;40241;52.684;9.758;2023-07-13T08:25:05;3.77;;;1.33;;
5650;SDS011;40241;52.684;9.758;2023-07-13T08:27:30;2.50;;;1.50;;
5650;SDS011;40241;52.684;9.758;2023-07-13T08:29:56;3.50;;;1.50;;
5650;SDS011;40241;52.684;9.758;2023-07-13T08:32:22;5.60;;;1.37;;
5650;SDS011;40241;52.684;9.758;2023-07-13T08:34:48;2.20;;;1.00;;
5650;SDS011;40241;52.684;9.758;2023-07-13T08:37:14;1.50;;;1.00;;
5650;SDS011;40241;52.684;9.758;2023-07-13T08:39:39;4.70;;;1.47;;
5650;SDS011;40241;52.684;9.758;2023-07-13T08:42:05;3.67;;;1.60;;
5650;SDS011;40241;52.684;9.758;2023-07-13T08:44:40;2.70;;;1.20;;
5650;SDS011;40241;52.684;9.758;2023-07-13T08:47:22;3.33;;;1.00;;
5650;SDS011;40241;52.684;9.758;2023-07-13T08:49:49;2.80;;;1.53;;
5650;SDS011;40241;52.684;9.758;2023-07-13T08:52:32;3.53;;;1.53;;
5650;SDS011;40241;52.684;9.758;2023-07-13T08:55:26;2.33;;;1.20;;
5650;SDS011;40241;52.684;9.758;2023-07-13T08:57:56;2.73;;;1.20;;
5650;SDS011;40241;52.684;9.758;2023-07-13T09:00:27;1.53;;;1.03;;
5650;SDS011;40241;52.684;9.758;2023-07-13T09:03:01;2.80;;;1.20;;
5650;SDS011;40241;52.684;9.758;2023-07-13T09:05:34;3.43;;;1.30;;
5650;SDS011;40241;52.684;9.758;2023-07-13T09:08:13;5.53;;;1.10;;
5650;SDS011;40241;52.684;9.758;2023-07-13T09:11:04;2.90;;;1.03;;
5650;SDS011;40241;52.684;9.758;2023-07-13T09:13:54;2.20;;;1.00;;
5650;SDS011;40241;52.684;9.758;2023-07-13T09:16:22;2.00;;;1.27;;
5650;SDS011;40241;52.684;9.758;2023-07-13T09:18:50;3.73;;;1.40;;
5650;SDS011;40241;52.684;9.758;2023-07-13T09:21:23;1.27;;;1.00;;
5650;SDS011;40241;52.684;9.758;2023-07-13T09:23:53;2.43;;;1.10;;
5650;SDS011;40241;52.684;9.758;2023-07-13T09:26:22;1.77;;;1.10;;
5650;SDS011;40241;52.684;9.758;2023-07-13T09:28:57;3.33;;;1.40;;
5650;SDS011;40241;52.684;9.758;2023-07-13T09:31:37;2.80;;;1.50;;
5650;SDS011;40241;52.684;9.758;2023-07-13T09:34:09;1.40;;;1.00;;
5650;SDS011;40241;52.684;9.758;2023-07-13T09:36:35;3.47;;;1.33;;
5650;SDS011;40241;52.684;9.758;2023-07-13T09:42:01;3.17;;;1.23;;
5650;SDS011;40241;52.684;9.758;2023-07-13T09:44:36;2.90;;;1.20;;
5650;SDS011;40241;52.684;9.758;2023-07-13T09:47:03;2.27;;;1.30;;
5650;SDS011;40241;52.684;9.758;2023-07-13T09:49:42;2.17;;;0.90;;
5650;SDS011;40241;52.684;9.758;2023-07-13T09:52:10;2.17;;;1.13;;
5650;SDS011;40241;52.684;9.758;2023-07-13T09:54:39;3.43;;;1.20;;
5650;SDS011;40241;52.684;9.758;2023-07-13T09:57:15;1.40;;;0.83;;
5650;SDS011;40241;52.684;9.758;2023-07-13T09:59:46;1.33;;;1.00;;
5650;SDS011;40241;52.684;9.758;2023-07-13T10:02:22;2.60;;;1.10;;
5650;SDS011;40241;52.684;9.758;2023-07-13T10:05:02;3.47;;;1.17;;
5650;SDS011;40241;52.684;9.758;2023-07-13T10:07:29;1.97;;;1.17;;
5650;SDS011;40241;52.684;9.758;2023-07-13T10:10:00;2.03;;;1.00;;
5650;SDS011;40241;52.684;9.758;2023-07-13T10:12:28;2.27;;;0.90;;
5650;SDS011;40241;52.684;9.758;2023-07-13T10:14:56;1.43;;;1.23;;
5650;SDS011;40241;52.684;9.758;2023-07-13T10:17:29;1.73;;;1.10;;
5650;SDS011;40241;52.684;9.758;2023-07-13T10:20:00;2.03;;;1.20;;
5650;SDS011;40241;52.684;9.758;2023-07-13T10:22:45;1.80;;;0.87;;
5650;SDS011;40241;52.684;9.758;2023-07-13T10:25:24;1.30;;;0.97;;
5650;SDS011;40241;52.684;9.758;2023-07-13T10:27:55;1.83;;;0.90;;
5650;SDS011;40241;52.684;9.758;2023-07-13T10:30:28;1.10;;;0.93;;
5650;SDS011;40241;52.684;9.758;2023-07-13T10:33:01;2.57;;;1.30;;
5650;SDS011;40241;52.684;9.758;2023-07-13T10:35:29;1.57;;;1.00;;
5650;SDS011;40241;52.684;9.758;2023-07-13T10:38:03;1.20;;;1.10;;
5650;SDS011;40241;52.684;9.758;2023-07-13T10:40:43;3.30;;;1.10;;
5650;SDS011;40241;52.684;9.758;2023-07-13T10:43:23;1.10;;;0.87;;
5650;SDS011;40241;52.684;9.758;2023-07-13T10:45:52;3.93;;;1.33;;
5650;SDS011;40241;52.684;9.758;2023-07-13T10:48:19;2.60;;;1.20;;
5650;SDS011;40241;52.684;9.758;2023-07-13T10:50:48;1.20;;;0.70;;
5650;SDS011;40241;52.684;9.758;2023-07-13T11:00:53;2.50;;;0.90;;
5650;SDS011;40241;52.684;9.758;2023-07-13T11:03:27;1.30;;;1.10;;
5650;SDS011;40241;52.684;9.758;2023-07-13T11:06:05;2.30;;;1.20;;
5650;SDS011;40241;52.684;9.758;2023-07-13T11:11:53;1.10;;;1.00;;
5650;SDS011;40241;52.684;9.758;2023-07-13T11:14:00;1.30;;;0.90;;
5650;SDS011;40241;52.684;9.758;2023-07-13T11:16:49;1.00;;;0.90;;
5650;SDS011;40241;52.684;9.758;2023-07-13T11:24:47;0.83;;;0.63;;
5650;SDS011;40241;52.684;9.758;2023-07-13T11:27:39;2.17;;;0.97;;
5650;SDS011;40241;52.684;9.758;2023-07-13T11:33:02;1.27;;;1.17;;
5650;SDS011;40241;52.684;9.758;2023-07-13T11:35:38;2.93;;;1.53;;
5650;SDS011;40241;52.684;9.758;2023-07-13T11:38:12;1.60;;;1.23;;
5650;SDS011;40241;52.684;9.758;2023-07-13T11:40:44;1.97;;;0.90;;
5650;SDS011;40241;52.684;9.758;2023-07-13T11:43:12;1.23;;;1.13;;
5650;SDS011;40241;52.684;9.758;2023-07-13T11:45:40;2.03;;;1.00;;
5650;SDS011;40241;52.684;9.758;2023-07-13T11:48:16;2.30;;;1.33;;
5650;SDS011;40241;52.684;9.758;2023-07-13T11:50:43;1.83;;;1.20;;
5650;SDS011;40241;52.684;9.758;2023-07-13T11:53:16;1.10;;;1.00;;
5650;SDS011;40241;52.684;9.758;2023-07-13T11:55:42;2.30;;;1.13;;
5650;SDS011;40241;52.684;9.758;2023-07-13T11:58:07;1.40;;;1.10;;
5650;SDS011;40241;52.684;9.758;2023-07-13T12:00:35;1.57;;;1.07;;
5650;SDS011;40241;52.684;9.758;2023-07-13T12:03:03;2.20;;;0.90;;
5650;SDS011;40241;52.684;9.758;2023-07-13T12:05:30;2.13;;;1.40;;
5650;SDS011;40241;52.684;9.758;2023-07-13T12:07:57;1.10;;;0.80;;
5650;SDS011;40241;52.684;9.758;2023-07-13T12:10:26;1.47;;;1.37;;
5650;SDS011;40241;52.684;9.758;2023-07-13T12:13:02;1.23;;;1.00;;
5650;SDS011;40241;52.684;9.758;2023-07-13T12:18:15;1.90;;;1.23;;
5650;SDS011;40241;52.684;9.758;2023-07-13T12:20:45;0.83;;;0.83;;
5650;SDS011;40241;52.684;9.758;2023-07-13T12:25:50;2.30;;;1.30;;
5650;SDS011;40241;52.684;9.758;2023-07-13T12:28:20;1.83;;;1.23;;
5650;SDS011;40241;52.684;9.758;2023-07-13T12:30:48;2.83;;;1.70;;
5650;SDS011;40241;52.684;9.758;2023-07-13T12:33:15;2.17;;;1.00;;
5650;SDS011;40241;52.684;9.758;2023-07-13T12:35:46;1.67;;;0.97;;
5650;SDS011;40241;52.684;9.758;2023-07-13T12:38:14;3.40;;;1.00;;
5650;SDS011;40241;52.684;9.758;2023-07-13T12:40:41;1.27;;;1.17;;
5650;SDS011;40241;52.684;9.758;2023-07-13T12:43:13;1.23;;;1.10;;
5650;SDS011;40241;52.684;9.758;2023-07-13T12:45:54;1.50;;;0.93;;
5650;SDS011;40241;52.684;9.758;2023-07-13T12:48:21;2.70;;;1.10;;
5650;SDS011;40241;52.684;9.758;2023-07-13T12:50:47;1.33;;;0.90;;
5650;SDS011;40241;52.684;9.758;2023-07-13T12:53:17;1.70;;;0.97;;
5650;SDS011;40241;52.684;9.758;2023-07-13T12:55:48;1.10;;;1.03;;
5650;SDS011;40241;52.684;9.758;2023-07-13T12:58:58;1.13;;;1.00;;
5650;SDS011;40241;52.684;9.758;2023-07-13T13:01:11;1.53;;;1.10;;
5650;SDS011;40241;52.684;9.758;2023-07-13T13:03:39;1.83;;;1.17;;
5650;SDS011;40241;52.684;9.758;2023-07-13T13:08:47;1.93;;;1.13;;
5650;SDS011;40241;52.684;9.758;2023-07-13T13:11:17;3.50;;;1.20;;
5650;SDS011;40241;52.684;9.758;2023-07-13T13:13:44;2.53;;;0.87;;
5650;SDS011;40241;52.684;9.758;2023-07-13T13:18:57;1.77;;;0.80;;
5650;SDS011;40241;52.684;9.758;2023-07-13T13:21:27;2.73;;;0.83;;
5650;SDS011;40241;52.684;9.758;2023-07-13T13:23:52;1.00;;;0.70;;
5650;SDS011;40241;52.684;9.758;2023-07-13T13:26:18;1.23;;;1.07;;
5650;SDS011;40241;52.684;9.758;2023-07-13T13:28:44;1.93;;;0.90;;
5650;SDS011;40241;52.684;9.758;2023-07-13T13:31:11;1.33;;;0.97;;
5650;SDS011;40241;52.684;9.758;2023-07-13T13:33:43;0.93;;;0.73;;
5650;SDS011;40241;52.684;9.758;2023-07-13T13:36:14;4.10;;;1.10;;
5650;SDS011;40241;52.684;9.758;2023-07-13T13:38:41;2.70;;;0.60;;
5650;SDS011;40241;52.684;9.758;2023-07-13T13:41:09;1.97;;;0.80;;
5650;SDS011;40241;52.684;9.758;2023-07-13T13:43:35;0.80;;;0.80;;
5650;SDS011;40241;52.684;9.758;2023-07-13T13:46:01;0.90;;;0.70;;
5650;SDS011;40241;52.684;9.758;2023-07-13T13:48:29;0.70;;;0.70;;
5650;SDS011;40241;52.684;9.758;2023-07-13T13:50:59;1.27;;;0.87;;
5650;SDS011;40241;52.684;9.758;2023-07-13T13:53:26;2.47;;;0.93;;
5650;SDS011;40241;52.684;9.758;2023-07-13T13:55:51;0.90;;;0.80;;
5650;SDS011;40241;52.684;9.758;2023-07-13T13:58:18;1.07;;;0.67;;
5650;SDS011;40241;52.684;9.758;2023-07-13T14:00:43;1.60;;;0.80;;
5650;SDS011;40241;52.684;9.758;2023-07-13T14:03:14;1.00;;;0.90;;
5650;SDS011;40241;52.684;9.758;2023-07-13T14:05:41;0.70;;;0.67;;
5650;SDS011;40241;52.684;9.758;2023-07-13T14:08:20;0.90;;;0.73;;
5650;SDS011;40241;52.684;9.758;2023-07-13T14:10:47;0.80;;;0.70;;
5650;SDS011;40241;52.684;9.758;2023-07-13T14:13:24;1.43;;;0.83;;
5650;SDS011;40241;52.684;9.758;2023-07-13T14:15:53;0.80;;;0.67;;
5650;SDS011;40241;52.684;9.758;2023-07-13T14:18:19;0.80;;;0.70;;
5650;SDS011;40241;52.684;9.758;2023-07-13T14:20:45;1.20;;;1.10;;
5650;SDS011;40241;52.684;9.758;2023-07-13T14:23:12;0.80;;;0.70;;
5650;SDS011;40241;52.684;9.758;2023-07-13T14:25:38;1.53;;;0.90;;
5650;SDS011;40241;52.684;9.758;2023-07-13T14:28:11;0.90;;;0.80;;
5650;SDS011;40241;52.684;9.758;2023-07-13T14:30:40;0.80;;;0.80;;
5650;SDS011;40241;52.684;9.758;2023-07-13T14:33:09;0.70;;;0.50;;
5650;SDS011;40241;52.684;9.758;2023-07-13T14:35:36;1.03;;;0.70;;
5650;SDS011;40241;52.684;9.758;2023-07-13T14:38:02;1.30;;;1.20;;
5650;SDS011;40241;52.684;9.758;2023-07-13T14:40:29;0.90;;;0.80;;
5650;SDS011;40241;52.684;9.758;2023-07-13T14:42:56;0.80;;;0.80;;
5650;SDS011;40241;52.684;9.758;2023-07-13T14:45:22;0.90;;;0.83;;
5650;SDS011;40241;52.684;9.758;2023-07-13T14:47:47;1.40;;;0.90;;
5650;SDS011;40241;52.684;9.758;2023-07-13T14:50:14;1.17;;;0.83;;
5650;SDS011;40241;52.684;9.758;2023-07-13T14:52:40;0.97;;;0.97;;
5650;SDS011;40241;52.684;9.758;2023-07-13T14:55:14;1.00;;;0.90;;
5650;SDS011;40241;52.684;9.758;2023-07-13T14:57:41;2.10;;;1.07;;
5650;SDS011;40241;52.684;9.758;2023-07-13T15:00:18;1.13;;;1.03;;
5650;SDS011;40241;52.684;9.758;2023-07-13T15:02:49;1.30;;;0.80;;
5650;SDS011;40241;52.684;9.758;2023-07-13T15:05:19;1.10;;;1.00;;
5650;SDS011;40241;52.684;9.758;2023-07-13T15:07:48;1.00;;;0.90;;
5650;SDS011;40241;52.684;9.758;2023-07-13T15:12:39;1.27;;;1.10;;
5650;SDS011;40241;52.684;9.758;2023-07-13T15:15:05;1.20;;;0.97;;
5650;SDS011;40241;52.684;9.758;2023-07-13T15:17:33;0.93;;;0.83;;
5650;SDS011;40241;52.684;9.758;2023-07-13T15:20:44;4.10;;;1.07;;
5650;SDS011;40241;52.684;9.758;2023-07-13T15:22:54;2.63;;;1.20;;
5650;SDS011;40241;52.684;9.758;2023-07-13T15:25:22;1.37;;;1.17;;
5650;SDS011;40241;52.684;9.758;2023-07-13T15:27:49;1.43;;;1.03;;
5650;SDS011;40241;52.684;9.758;2023-07-13T15:30:15;1.30;;;1.20;;
5650;SDS011;40241;52.684;9.758;2023-07-13T15:32:41;1.27;;;1.17;;
5650;SDS011;40241;52.684;9.758;2023-07-13T15:35:15;1.43;;;1.00;;
5650;SDS011;40241;52.684;9.758;2023-07-13T15:37:45;1.33;;;1.20;;
5650;SDS011;40241;52.684;9.758;2023-07-13T15:40:11;0.80;;;0.80;;
5650;SDS011;40241;52.684;9.758;2023-07-13T15:42:38;1.13;;;0.93;;